Time;durP1;ratioP1;P1;durP2;ratioP2;P2;SDS_P1;SDS_P2;PMS_P1;PMS_P2;Temp;Humidity;BMP_temperature;BMP_pressure;BME280_temperature;BME280_humidity;BME280_pressure;Samples;Min_cycle;Max_cycle;Signal;HPM_P1;HPM_P2
2022/04/04 00:01:08;;;;;;;7.33;4.93;;;0.80;99.90;;;;;;5052941;28;20181;-77
2022/04/04 00:03:33;;;;;;;6.87;4.70;;;0.80;99.90;;;;;;5052930;28;20269;-75
2022/04/04 00:05:59;;;;;;;8.63;5.60;;;0.80;99.90;;;;;;5052866;28;20181;-76
2022/04/04 00:08:25;;;;;;;5.87;5.30;;;0.70;99.90;;;;;;5052539;28;20197;-77
2022/04/04 00:10:50;;;;;;;7.23;5.87;;;0.70;99.90;;;;;;5053737;28;20177;-76
2022/04/04 00:13:16;;;;;;;6.20;5.60;;;0.70;99.90;;;;;;5053166;28;20183;-76
2022/04/04 00:15:41;;;;;;;7.37;5.47;;;0.70;99.90;;;;;;5053986;28;20204;-76
2022/04/04 00:18:09;;;;;;;7.80;5.47;;;0.70;99.90;;;;;;5071856;28;20181;-76
2022/04/04 00:20:35;;;;;;;6.93;5.80;;;0.80;99.90;;;;;;5054223;28;20605;-76
2022/04/04 00:23:00;;;;;;;6.47;5.80;;;0.70;99.90;;;;;;5072193;28;20225;-76
2022/04/04 00:25:26;;;;;;;8.53;5.67;;;0.80;99.90;;;;;;5052127;28;20661;-76
2022/04/04 00:27:51;;;;;;;7.50;5.43;;;0.80;99.90;;;;;;5053935;28;20186;-76
2022/04/04 00:30:17;;;;;;;6.30;5.70;;;0.80;99.90;;;;;;5071746;28;20223;-76
2022/04/04 00:32:43;;;;;;;5.93;5.30;;;0.80;99.90;;;;;;5071784;28;20184;-76
2022/04/04 00:35:09;;;;;;;6.30;5.70;;;0.80;99.90;;;;;;5071667;28;20668;-76
2022/04/04 00:37:37;;;;;;;7.83;5.83;;;0.80;99.90;;;;;;5054733;28;20238;-76
2022/04/04 00:40:07;;;;;;;6.00;5.37;;;0.80;99.90;;;;;;5071669;28;20272;-76
2022/04/04 00:42:33;;;;;;;6.00;5.40;;;0.80;99.90;;;;;;5047789;28;20181;-76
2022/04/04 00:44:59;;;;;;;6.33;5.73;;;0.80;99.90;;;;;;5051689;28;20590;-76
2022/04/04 00:47:25;;;;;;;6.23;5.23;;;0.80;99.90;;;;;;5051886;28;20180;-76
2022/04/04 00:49:51;;;;;;;5.67;5.07;;;0.80;99.90;;;;;;5051505;28;20212;-76
2022/04/04 00:52:17;;;;;;;6.33;5.17;;;0.80;99.90;;;;;;5051600;28;20185;-75
2022/04/04 00:54:44;;;;;;;6.13;5.57;;;0.70;99.90;;;;;;5051685;28;20217;-75
2022/04/04 00:57:10;;;;;;;6.77;5.73;;;0.70;99.90;;;;;;5033569;28;20185;-76
2022/04/04 00:59:36;;;;;;;7.27;5.40;;;0.70;99.90;;;;;;5059341;28;20197;-76
2022/04/04 01:02:02;;;;;;;6.00;5.17;;;0.70;99.90;;;;;;5053151;28;20189;-76
2022/04/04 01:04:28;;;;;;;7.63;5.87;;;0.70;99.90;;;;;;5071356;28;20181;-76
2022/04/04 01:06:54;;;;;;;9.03;5.67;;;0.70;99.90;;;;;;5071723;28;20548;-76
2022/04/04 01:09:19;;;;;;;6.40;4.93;;;0.70;99.90;;;;;;5035440;28;1041737;-76
2022/04/04 01:12:07;;;;;;;8.83;5.50;;;0.70;99.90;;;;;;5072956;28;20273;-77
2022/04/04 01:14:34;;;;;;;6.43;5.83;;;0.60;99.90;;;;;;5054371;28;20251;-77
2022/04/04 01:17:00;;;;;;;6.13;5.53;;;0.70;99.90;;;;;;5070136;28;20189;-77
2022/04/04 01:19:25;;;;;;;7.33;6.30;;;0.70;99.90;;;;;;5071850;28;20747;-76
2022/04/04 01:21:51;;;;;;;5.70;5.20;;;0.60;99.90;;;;;;5047897;28;20197;-76
2022/04/04 01:24:21;;;;;;;8.20;6.33;;;0.70;99.90;;;;;;5054732;28;20552;-76
2022/04/04 01:26:47;;;;;;;6.53;5.80;;;0.70;99.90;;;;;;5037752;28;20666;-76
2022/04/04 01:29:13;;;;;;;8.40;6.57;;;0.70;99.90;;;;;;5055540;28;20749;-76
2022/04/04 01:31:39;;;;;;;7.43;5.80;;;0.70;99.90;;;;;;5055596;28;20266;-76
2022/04/04 01:34:05;;;;;;;6.73;6.03;;;0.70;99.90;;;;;;5055447;28;20577;-76
2022/04/04 01:36:30;;;;;;;8.03;6.53;;;0.70;99.90;;;;;;5064218;28;20253;-76
2022/04/04 01:38:56;;;;;;;9.83;5.80;;;0.70;99.90;;;;;;5075731;28;20201;-76
2022/04/04 01:41:22;;;;;;;6.80;5.63;;;0.70;99.90;;;;;;5075803;28;20170;-76
2022/04/04 01:43:47;;;;;;;8.50;6.30;;;0.70;99.90;;;;;;5075477;28;20181;-75
2022/04/04 01:46:25;;;;;;;6.90;5.90;;;0.70;99.90;;;;;;5057280;28;20213;-76
2022/04/04 01:48:55;;;;;;;6.50;5.90;;;0.60;99.90;;;;;;5075312;28;20198;-76
2022/04/04 01:51:21;;;;;;;7.60;6.10;;;0.70;99.90;;;;;;5075353;28;20192;-76
2022/04/04 01:53:47;;;;;;;8.80;5.87;;;0.60;99.90;;;;;;5038489;28;20562;-76
2022/04/04 01:56:13;;;;;;;7.73;6.00;;;0.60;99.90;;;;;;5055226;28;20190;-75
2022/04/04 01:58:39;;;;;;;7.03;6.33;;;0.60;99.90;;;;;;5055324;28;20526;-76
2022/04/04 02:01:16;;;;;;;10.37;6.23;;;0.60;99.90;;;;;;5038089;28;20688;-76
2022/04/04 02:03:44;;;;;;;8.60;5.90;;;0.60;99.90;;;;;;5055340;28;20573;-76
2022/04/04 02:06:09;;;;;;;6.23;5.60;;;0.60;99.90;;;;;;5055005;28;20165;-76
2022/04/04 02:08:35;;;;;;;7.20;6.50;;;0.60;99.90;;;;;;5042276;28;20787;-77
2022/04/04 02:11:02;;;;;;;7.97;6.63;;;0.70;99.90;;;;;;5056964;28;20225;-76
2022/04/04 02:13:28;;;;;;;10.20;6.30;;;0.60;99.90;;;;;;5075070;28;20204;-76
2022/04/04 02:15:55;;;;;;;8.20;6.70;;;0.60;99.90;;;;;;5056778;28;20245;-75
2022/04/04 02:18:21;;;;;;;7.10;6.20;;;0.60;99.90;;;;;;5056751;28;20182;-76
2022/04/04 02:20:47;;;;;;;8.03;6.77;;;0.60;99.90;;;;;;5074744;28;20185;-76
2022/04/04 02:23:17;;;;;;;6.77;6.00;;;0.70;99.90;;;;;;5056754;28;20675;-76
2022/04/04 02:25:44;;;;;;;6.47;5.87;;;0.70;99.90;;;;;;5073045;28;20240;-75
2022/04/04 02:28:09;;;;;;;7.10;6.40;;;0.70;99.90;;;;;;5074510;28;20185;-76
2022/04/04 02:30:35;;;;;;;7.50;6.07;;;0.80;99.90;;;;;;5074625;28;20177;-76
2022/04/04 02:33:01;;;;;;;7.47;6.07;;;0.80;99.90;;;;;;5074570;28;20204;-76
2022/04/04 02:35:27;;;;;;;7.83;5.73;;;0.80;99.90;;;;;;5055498;28;20200;-76
2022/04/04 02:37:53;;;;;;;8.23;6.63;;;0.90;99.90;;;;;;5074468;28;20253;-75
2022/04/04 02:40:19;;;;;;;8.00;6.07;;;0.90;99.90;;;;;;5074302;28;20236;-75
2022/04/04 02:42:44;;;;;;;9.50;6.33;;;1.00;99.90;;;;;;5072845;28;20178;-75
2022/04/04 02:45:10;;;;;;;9.33;6.90;;;1.00;99.90;;;;;;5074960;28;20265;-75
2022/04/04 02:47:35;;;;;;;9.00;6.83;;;1.00;99.90;;;;;;5056425;28;20185;-75
2022/04/04 02:50:01;;;;;;;10.50;6.23;;;1.10;99.90;;;;;;5074060;28;20201;-76
2022/04/04 02:52:27;;;;;;;8.67;6.10;;;1.10;99.90;;;;;;5074382;28;20182;-76
2022/04/04 02:54:52;;;;;;;8.77;6.50;;;1.20;99.90;;;;;;5073938;28;20210;-75
2022/04/04 02:57:18;;;;;;;9.80;6.30;;;1.20;99.90;;;;;;5074267;28;20714;-75
2022/04/04 02:59:44;;;;;;;9.70;7.03;;;1.20;99.90;;;;;;5061293;28;20209;-75
2022/04/04 03:02:10;;;;;;;9.50;7.07;;;1.30;99.90;;;;;;5036097;28;20559;-76
2022/04/04 03:04:36;;;;;;;8.47;7.37;;;1.30;99.90;;;;;;5053883;28;20190;-75
2022/04/04 03:07:02;;;;;;;7.97;6.83;;;1.40;99.90;;;;;;5054224;28;20171;-76
2022/04/04 03:09:27;;;;;;;13.10;7.30;;;1.40;99.90;;;;;;5053880;28;20645;-76
2022/04/04 03:11:53;;;;;;;13.87;7.50;;;1.50;99.90;;;;;;5036002;28;20186;-76
2022/04/04 03:14:19;;;;;;;12.27;7.33;;;1.50;99.90;;;;;;5035746;28;20241;-76
2022/04/04 03:16:44;;;;;;;9.03;7.33;;;1.50;99.90;;;;;;5054788;28;20210;-76
2022/04/04 03:19:10;;;;;;;10.50;7.57;;;1.60;99.90;;;;;;5053821;28;20214;-76
2022/04/04 03:21:35;;;;;;;9.53;7.27;;;1.60;99.90;;;;;;5057129;28;20268;-76
2022/04/04 03:24:01;;;;;;;12.50;7.37;;;1.60;99.90;;;;;;5073807;28;20211;-76
2022/04/04 03:26:31;;;;;;;9.10;7.60;;;1.70;99.90;;;;;;5073447;28;20193;-76
2022/04/04 03:28:57;;;;;;;12.63;7.23;;;1.70;99.90;;;;;;5073356;28;20282;-76
2022/04/04 03:31:22;;;;;;;9.17;7.10;;;1.70;99.90;;;;;;5073376;28;20618;-76
2022/04/04 03:33:48;;;;;;;10.67;7.10;;;1.70;99.90;;;;;;5073317;28;20562;-76
2022/04/04 03:36:13;;;;;;;10.13;7.70;;;1.80;99.90;;;;;;5066033;28;20567;-75
2022/04/04 03:38:39;;;;;;;9.77;7.27;;;1.80;99.90;;;;;;5053232;28;20195;-76
2022/04/04 03:41:05;;;;;;;13.27;7.90;;;1.80;99.90;;;;;;5053260;28;20273;-76
2022/04/04 03:43:30;;;;;;;7.93;6.57;;;1.90;99.90;;;;;;5053471;28;20842;-75
2022/04/04 03:45:56;;;;;;;9.73;6.60;;;1.90;99.90;;;;;;5052981;28;20186;-76
2022/04/04 03:48:21;;;;;;;9.60;6.73;;;1.90;99.90;;;;;;5035335;28;20174;-76
2022/04/04 03:50:51;;;;;;;9.10;7.03;;;1.90;99.90;;;;;;5035237;28;20270;-76
2022/04/04 03:53:16;;;;;;;10.23;7.57;;;1.90;99.90;;;;;;5063481;28;20273;-76
2022/04/04 03:55:43;;;;;;;11.93;6.83;;;1.90;99.90;;;;;;5055177;28;20293;-76
2022/04/04 03:58:10;;;;;;;11.97;7.73;;;2.00;99.90;;;;;;5072936;28;20248;-76
2022/04/04 04:00:38;;;;;;;9.80;7.30;;;2.00;99.90;;;;;;5073550;28;20227;-76
2022/04/04 04:03:04;;;;;;;9.30;6.63;;;2.00;99.90;;;;;;5073058;28;20167;-76
2022/04/04 04:05:30;;;;;;;8.50;7.37;;;2.00;99.90;;;;;;5055414;28;20740;-76
2022/04/04 04:07:55;;;;;;;10.13;7.30;;;2.00;99.90;;;;;;5072973;28;20339;-75
2022/04/04 04:10:21;;;;;;;9.37;7.13;;;2.00;99.90;;;;;;5053048;28;20229;-76
2022/04/04 04:12:48;;;;;;;9.47;7.77;;;2.00;99.90;;;;;;5072946;28;20194;-75
2022/04/04 04:15:16;;;;;;;10.53;7.90;;;2.00;99.90;;;;;;5072939;28;20212;-76
2022/04/04 04:17:43;;;;;;;9.60;6.97;;;2.00;99.90;;;;;;5072873;28;20257;-76
2022/04/04 04:20:21;;;;;;;11.67;7.67;;;2.10;99.90;;;;;;5072864;28;20202;-76
2022/04/04 04:22:51;;;;;;;9.00;6.97;;;2.00;99.90;;;;;;5059953;28;20282;-76
2022/04/04 04:25:17;;;;;;;11.53;7.90;;;2.00;99.90;;;;;;5034910;28;20184;-76
2022/04/04 04:27:45;;;;;;;11.00;8.17;;;2.10;99.90;;;;;;5052624;28;20179;-75
2022/04/04 04:30:10;;;;;;;9.67;8.10;;;2.10;99.90;;;;;;5052691;28;20191;-75
2022/04/04 04:32:36;;;;;;;9.10;7.73;;;2.10;99.90;;;;;;5052715;28;20186;-76
2022/04/04 04:35:02;;;;;;;12.40;8.27;;;2.10;99.90;;;;;;5052583;28;20241;-76
2022/04/04 04:37:27;;;;;;;10.50;7.93;;;2.10;99.90;;;;;;5068470;28;20182;-76
2022/04/04 04:39:53;;;;;;;12.33;9.07;;;2.10;99.90;;;;;;5072657;28;20195;-76
2022/04/04 04:42:18;;;;;;;15.13;7.83;;;2.10;99.90;;;;;;5072610;28;20193;-76
2022/04/04 04:44:45;;;;;;;10.60;8.43;;;2.20;52.10;;;;;;5072532;28;20184;-75
2022/04/04 04:47:11;;;;;;;14.13;8.70;;;2.20;1.00;;;;;;5054638;28;20191;-77
2022/04/04 04:49:37;;;;;;;12.30;8.80;;;2.30;1.00;;;;;;5072740;28;20199;-75
2022/04/04 04:52:03;;;;;;;10.87;8.33;;;2.30;1.00;;;;;;5052879;28;20605;-76
2022/04/04 04:54:30;;;;;;;11.53;8.27;;;2.30;1.00;;;;;;5072125;28;20210;-77
2022/04/04 04:56:56;;;;;;;15.67;8.87;;;2.30;1.00;;;;;;5054565;28;20187;-76
2022/04/04 04:59:22;;;;;;;10.60;8.10;;;2.30;1.00;;;;;;5057202;28;20290;-76
2022/04/04 05:01:48;;;;;;;13.90;8.83;;;2.30;1.00;;;;;;5076479;28;20210;-75
2022/04/04 05:04:14;;;;;;;12.77;8.70;;;2.30;99.90;;;;;;5058199;28;20189;-75
2022/04/04 05:06:40;;;;;;;12.07;8.47;;;2.40;99.90;;;;;;5076082;28;20171;-74
2022/04/04 05:11:33;;;;;;;16.03;9.27;;;2.40;1.00;;;;;;5097914;22;20238;-89
2022/04/04 05:13:59;;;;;;;10.43;7.83;;;2.40;1.00;;;;;;5076321;28;20277;-90
2022/04/04 05:16:28;;;;;;;15.90;8.80;;;2.50;1.00;;;;;;5077061;28;20207;-90
2022/04/04 05:18:57;;;;;;;12.20;8.23;;;2.50;1.00;;;;;;5085899;28;20689;-90
2022/04/04 05:21:23;;;;;;;17.00;8.70;;;2.50;99.90;;;;;;5097529;28;20185;-90
2022/04/04 05:23:49;;;;;;;15.13;8.93;;;2.50;99.90;;;;;;5111385;22;20221;-93
2022/04/04 05:26:15;;;;;;;13.67;8.37;;;2.80;22.30;;;;;;5078477;28;20182;-93
2022/04/04 05:29:02;;;;;;;;;;;;;;;;;;;;;
2022/04/04 05:31:23;;;;;;;13.60;8.23;;;1.40;1.00;;;;;;5055498;28;20231;-73
2022/04/04 05:33:49;;;;;;;13.53;8.73;;;2.60;1.00;;;;;;5075995;28;20546;-73
2022/04/04 05:36:15;;;;;;;14.87;8.80;;;2.60;1.00;;;;;;5075294;28;20222;-74
2022/04/04 05:38:40;;;;;;;14.13;7.87;;;2.70;1.00;;;;;;5075309;28;20182;-74
2022/04/04 05:41:06;;;;;;;16.07;9.17;;;2.70;21.60;;;;;;5075337;28;20187;-74
2022/04/04 05:43:31;;;;;;;15.87;8.20;;;2.70;9.60;;;;;;5075504;28;20181;-74
2022/04/04 05:45:57;;;;;;;13.20;7.83;;;2.70;1.00;;;;;;5057375;28;20537;-73
2022/04/04 05:48:25;;;;;;;13.20;7.93;;;2.80;99.90;;;;;;5075114;28;20183;-73
2022/04/04 05:50:51;;;;;;;14.43;8.23;;;2.80;1.00;;;;;;5075117;28;20229;-73
2022/04/04 05:53:17;;;;;;;12.77;8.33;;;2.90;1.00;;;;;;5085716;28;20210;-74
2022/04/04 05:55:42;;;;;;;12.07;7.27;;;2.90;1.00;;;;;;5077191;28;20212;-73
2022/04/04 05:58:08;;;;;;;10.93;7.13;;;2.90;99.90;;;;;;5095365;28;20185;-74
2022/04/04 06:00:33;;;;;;;10.43;7.33;;;3.00;1.00;;;;;;5095169;28;20201;-74
2022/04/04 06:02:59;;;;;;;10.90;6.87;;;3.10;1.00;;;;;;5095287;28;20229;-75
2022/04/04 06:05:24;;;;;;;11.63;6.73;;;3.10;1.00;;;;;;5095191;28;20553;-74
2022/04/04 06:07:50;;;;;;;10.50;6.60;;;3.10;1.00;;;;;;5095567;28;20189;-73
2022/04/04 06:10:16;;;;;;;15.27;7.17;;;3.10;1.00;;;;;;5091052;28;20202;-76
2022/04/04 06:12:43;;;;;;;8.07;6.50;;;3.20;1.00;;;;;;5092969;28;20184;-74
2022/04/04 06:15:10;;;;;;;8.97;6.63;;;3.20;1.00;;;;;;5080662;28;20290;-75
2022/04/04 06:17:38;;;;;;;13.33;6.70;;;3.20;1.00;;;;;;5059171;28;20227;-75
2022/04/04 06:20:05;;;;;;;9.83;6.57;;;3.20;99.90;;;;;;5094489;28;20202;-74
2022/04/04 06:22:37;;;;;;;10.13;6.03;;;3.30;99.90;;;;;;5077588;28;20175;-75
2022/04/04 06:25:05;;;;;;;11.17;6.77;;;3.30;99.90;;;;;;5085806;28;20202;-75
2022/04/04 06:27:30;;;;;;;13.07;6.77;;;3.40;99.90;;;;;;5077433;28;20658;-75
2022/04/04 06:29:57;;;;;;;10.10;6.83;;;3.40;99.90;;;;;;5082512;28;20229;-76
2022/04/04 06:32:24;;;;;;;9.03;6.33;;;3.40;14.20;;;;;;5094851;28;20181;-77
2022/04/04 06:34:50;;;;;;;9.77;6.87;;;3.50;1.00;;;;;;5083655;28;20194;-75
2022/04/04 06:37:16;;;;;;;10.13;6.13;;;3.60;1.00;;;;;;5079746;28;20183;-75
2022/04/04 06:39:42;;;;;;;12.27;6.53;;;3.60;1.00;;;;;;5074377;28;20251;-74
2022/04/04 06:42:08;;;;;;;9.03;6.30;;;3.70;99.90;;;;;;5087986;28;20190;-74
2022/04/04 06:44:33;;;;;;;9.23;6.03;;;3.80;99.90;;;;;;5094408;28;20178;-75
2022/04/04 06:46:59;;;;;;;8.57;6.13;;;3.90;60.70;;;;;;5094923;28;20637;-75
2022/04/04 06:49:25;;;;;;;9.97;6.10;;;4.00;1.00;;;;;;5094276;28;20185;-74
2022/04/04 06:51:52;;;;;;;8.03;6.30;;;4.00;1.00;;;;;;5082903;28;20194;-75
2022/04/04 06:54:19;;;;;;;14.67;6.17;;;4.20;1.00;;;;;;5074124;28;20214;-75
2022/04/04 06:56:53;;;;;;;8.20;6.47;;;4.20;1.00;;;;;;5073956;28;20178;-74
2022/04/04 06:59:19;;;;;;;8.43;5.90;;;4.30;1.00;;;;;;5073798;28;20154;-75
2022/04/04 07:01:46;;;;;;;10.47;6.40;;;4.40;1.00;;;;;;5074402;28;20202;-74
2022/04/04 07:04:12;;;;;;;11.87;6.33;;;4.50;1.00;;;;;;5055928;28;20186;-75
2022/04/04 07:06:38;;;;;;;10.67;5.90;;;4.50;99.90;;;;;;5055891;28;20187;-75
2022/04/04 07:09:04;;;;;;;9.83;6.40;;;4.70;99.90;;;;;;5074472;28;20266;-75
2022/04/04 07:11:30;;;;;;;9.30;6.17;;;4.70;99.90;;;;;;5073736;28;20230;-75
2022/04/04 07:13:56;;;;;;;7.07;5.67;;;4.70;99.90;;;;;;5073611;28;20187;-74
2022/04/04 07:16:22;;;;;;;8.53;5.93;;;4.80;91.80;;;;;;5073537;28;20181;-75
2022/04/04 07:18:48;;;;;;;9.30;5.83;;;4.90;1.00;;;;;;5088467;28;20257;-74
2022/04/04 07:21:15;;;;;;;9.57;5.83;;;4.90;1.00;;;;;;5093260;28;20225;-74
2022/04/04 07:23:41;;;;;;;8.97;5.93;;;5.00;99.90;;;;;;5093759;28;20162;-74
2022/04/04 07:26:07;;;;;;;7.97;5.57;;;5.00;99.90;;;;;;5061938;28;20269;-75
2022/04/04 07:28:33;;;;;;;8.27;5.67;;;5.00;91.90;;;;;;5073334;28;20175;-74
2022/04/04 07:30:58;;;;;;;8.73;5.80;;;5.10;96.10;;;;;;5068377;28;20222;-75
2022/04/04 07:33:24;;;;;;;8.53;5.70;;;5.20;99.90;;;;;;5093319;28;20264;-75
2022/04/04 07:35:50;;;;;;;8.53;6.10;;;5.30;1.00;;;;;;5088733;28;20681;-75
2022/04/04 07:38:16;;;;;;;9.17;5.80;;;5.40;1.00;;;;;;5096442;28;20219;-75
2022/04/04 07:40:42;;;;;;;11.80;6.27;;;5.40;75.20;;;;;;5095536;28;20194;-75
2022/04/04 07:43:08;;;;;;;11.93;5.83;;;5.50;1.00;;;;;;5081066;28;20224;-74
2022/04/04 07:45:34;;;;;;;10.53;6.20;;;5.60;1.00;;;;;;5073125;28;20190;-74
2022/04/04 07:48:00;;;;;;;12.37;5.97;;;5.60;99.90;;;;;;5076641;28;20186;-75
2022/04/04 07:50:27;;;;;;;7.57;5.43;;;5.70;1.00;;;;;;5075152;28;20206;-75
2022/04/04 07:52:53;;;;;;;8.70;5.93;;;5.80;99.90;;;;;;5113659;28;20170;-75
2022/04/04 07:55:19;;;;;;;6.70;5.87;;;5.90;99.90;;;;;;5096172;28;20313;-75
2022/04/04 07:57:45;;;;;;;8.93;5.43;;;5.90;99.90;;;;;;5093539;28;20179;-75
2022/04/04 08:00:14;;;;;;;8.33;5.70;;;6.00;99.90;;;;;;5061108;28;20685;-75
2022/04/04 08:02:40;;;;;;;7.50;5.90;;;6.00;59.70;;;;;;5061596;28;20181;-75
2022/04/04 08:05:07;;;;;;;8.80;5.60;;;6.10;14.80;;;;;;5068201;28;20654;-75
2022/04/04 08:07:32;;;;;;;7.13;5.60;;;6.10;99.90;;;;;;5115680;28;20186;-74
2022/04/04 08:09:58;;;;;;;9.90;5.57;;;6.20;1.00;;;;;;5114022;28;20204;-74
2022/04/04 08:12:27;;;;;;;8.87;6.30;;;6.20;1.00;;;;;;5095861;28;20185;-75
2022/04/04 08:14:53;;;;;;;9.23;5.63;;;6.20;1.00;;;;;;5114630;28;20198;-75
2022/04/04 08:17:19;;;;;;;8.10;5.13;;;6.30;1.00;;;;;;5086210;28;20186;-75
2022/04/04 08:19:44;;;;;;;10.93;4.67;;;6.30;1.00;;;;;;5094680;28;20198;-74
2022/04/04 08:22:10;;;;;;;7.07;5.37;;;6.40;1.00;;;;;;5074833;28;20178;-75
2022/04/04 08:24:35;;;;;;;7.70;5.13;;;6.40;1.00;;;;;;5094732;28;20210;-75
2022/04/04 08:27:01;;;;;;;5.93;4.60;;;6.50;1.00;;;;;;5090884;28;20191;-75
2022/04/04 08:29:27;;;;;;;6.40;5.20;;;6.50;99.90;;;;;;5096805;28;20546;-75
2022/04/04 08:31:52;;;;;;;7.53;4.97;;;6.50;99.90;;;;;;5113187;28;20267;-75
2022/04/04 08:34:18;;;;;;;9.43;5.37;;;6.50;99.00;;;;;;5096357;28;20268;-75
2022/04/04 08:36:43;;;;;;;7.83;5.13;;;6.50;99.90;;;;;;5078771;28;20175;-74
2022/04/04 08:39:09;;;;;;;9.43;5.27;;;6.50;99.90;;;;;;5097159;28;20170;-74
2022/04/04 08:41:36;;;;;;;8.10;4.50;;;6.50;99.90;;;;;;5096945;28;20182;-75
2022/04/04 08:44:03;;;;;;;9.83;5.00;;;6.60;99.90;;;;;;5096865;28;20181;-76
2022/04/04 08:46:29;;;;;;;9.53;5.37;;;6.60;99.90;;;;;;5115622;28;20336;-75
2022/04/04 08:48:58;;;;;;;7.20;4.80;;;6.60;99.90;;;;;;5103346;28;20174;-75
2022/04/04 08:51:26;;;;;;;7.93;4.90;;;6.70;99.90;;;;;;5086550;28;20202;-75
2022/04/04 08:53:52;;;;;;;8.40;5.07;;;6.80;99.90;;;;;;5117035;28;20231;-75
2022/04/04 08:56:23;;;;;;;12.27;5.43;;;6.80;99.90;;;;;;5100309;28;20213;-75
2022/04/04 08:58:53;;;;;;;7.33;4.70;;;6.80;96.30;;;;;;5096549;28;20593;-75
2022/04/04 09:01:20;;;;;;;10.93;5.00;;;6.80;81.30;;;;;;5096447;28;20614;-75
2022/04/04 09:03:52;;;;;;;6.53;4.87;;;7.00;99.90;;;;;;5096451;28;20193;-75
2022/04/04 09:06:18;;;;;;;7.80;4.90;;;7.00;92.20;;;;;;5096601;28;20189;-75
2022/04/04 09:08:46;;;;;;;8.17;4.47;;;7.10;1.00;;;;;;5077521;28;20554;-75
2022/04/04 09:11:13;;;;;;;9.67;5.50;;;7.10;1.00;;;;;;5058404;28;20206;-75
2022/04/04 09:13:39;;;;;;;5.27;4.43;;;7.20;1.00;;;;;;5081201;28;20183;-75
2022/04/04 09:16:06;;;;;;;7.07;4.50;;;7.20;93.10;;;;;;5103012;28;20699;-75
2022/04/04 09:18:39;;;;;;;5.03;4.03;;;7.20;1.00;;;;;;5102051;28;20170;-75
2022/04/04 09:21:32;;;;;;;9.53;4.90;;;7.30;1.00;;;;;;5094921;28;20194;-74
2022/04/04 09:24:01;;;;;;;8.07;5.20;;;7.30;99.90;;;;;;5085882;28;20185;-76
2022/04/04 09:26:45;;;;;;;4.77;4.27;;;7.30;99.90;;;;;;5096149;28;20664;-75
2022/04/04 09:29:14;;;;;;;6.10;4.67;;;7.40;1.00;;;;;;5097687;28;20182;-74
2022/04/04 09:32:02;;;;;;;6.20;4.60;;;7.50;1.00;;;;;;5097975;28;20686;-75
2022/04/04 09:34:27;;;;;;;10.77;4.80;;;7.50;1.00;;;;;;5116086;28;20197;-74
2022/04/04 09:36:53;;;;;;;10.17;5.23;;;7.50;99.90;;;;;;5116237;28;20549;-74
2022/04/04 09:39:19;;;;;;;8.83;4.47;;;7.30;1.00;;;;;;5097887;28;20174;-74
2022/04/04 09:41:45;;;;;;;8.40;4.93;;;7.20;1.00;;;;;;5116175;28;20174;-73
2022/04/04 09:44:14;;;;;;;8.93;5.33;;;7.20;1.00;;;;;;5097285;28;20704;-74
2022/04/04 09:46:42;;;;;;;6.30;4.50;;;7.20;1.00;;;;;;5116341;28;20662;-75
2022/04/04 09:49:20;;;;;;;6.87;5.30;;;7.10;96.90;;;;;;5097672;28;20260;-75
2022/04/04 09:51:48;;;;;;;13.03;5.90;;;7.00;99.90;;;;;;5115873;28;20176;-74
2022/04/04 09:54:20;;;;;;;6.83;5.23;;;7.00;1.00;;;;;;5097623;28;20271;-75
2022/04/04 09:56:47;;;;;;;7.87;5.13;;;6.90;1.00;;;;;;5115889;28;20178;-73
2022/04/04 09:59:15;;;;;;;11.40;5.50;;;6.80;1.00;;;;;;5097481;28;20553;-75
2022/04/04 10:01:42;;;;;;;12.87;6.37;;;6.80;1.00;;;;;;5115687;28;20173;-75
2022/04/04 10:04:09;;;;;;;7.90;5.87;;;6.70;1.00;;;;;;5116065;28;20510;-75
2022/04/04 10:06:35;;;;;;;8.13;6.50;;;6.80;1.00;;;;;;5115721;28;20170;-75
2022/04/04 10:09:02;;;;;;;9.07;5.90;;;6.60;1.00;;;;;;5115881;28;20269;-74
2022/04/04 10:11:30;;;;;;;10.70;6.43;;;6.50;1.00;;;;;;5092351;28;20285;-76
2022/04/04 10:13:57;;;;;;;11.00;6.50;;;6.60;23.80;;;;;;5075469;28;20721;-77
2022/04/04 10:16:24;;;;;;;9.70;7.73;;;6.60;99.90;;;;;;5078931;28;20213;-77
2022/04/04 10:18:51;;;;;;;7.73;6.40;;;6.70;99.90;;;;;;5075395;28;20186;-77
2022/04/04 10:21:18;;;;;;;10.70;6.90;;;6.70;99.90;;;;;;5074964;28;20187;-76
2022/04/04 10:23:44;;;;;;;21.37;8.30;;;6.70;99.90;;;;;;5057145;28;20182;-76
2022/04/04 10:26:14;;;;;;;11.27;6.67;;;6.60;99.90;;;;;;5074767;28;20549;-76
2022/04/04 10:28:41;;;;;;;11.57;7.03;;;6.60;1.00;;;;;;5074804;28;20197;-76
2022/04/04 10:31:19;;;;;;;18.77;7.40;;;6.60;99.90;;;;;;5073331;28;20636;-76
2022/04/04 10:33:46;;;;;;;11.37;6.30;;;6.50;7.90;;;;;;5074424;28;20181;-76
2022/04/04 10:36:16;;;;;;;7.40;6.50;;;6.50;1.00;;;;;;5074492;28;20692;-75
2022/04/04 10:38:44;;;;;;;9.13;6.80;;;6.40;1.00;;;;;;5074444;28;20176;-76
2022/04/04 10:41:13;;;;;;;10.37;6.97;;;6.40;99.90;;;;;;5074283;28;20195;-75
2022/04/04 10:43:40;;;;;;;8.77;6.50;;;6.40;1.00;;;;;;5073164;28;20187;-76
2022/04/04 10:46:11;;;;;;;10.70;7.20;;;6.30;99.90;;;;;;5074309;28;20255;-75
2022/04/04 10:48:39;;;;;;;6.47;5.87;;;6.20;99.90;;;;;;5072997;28;20655;-77
2022/04/04 10:51:18;;;;;;;11.33;7.60;;;6.20;1.00;;;;;;5074133;28;20201;-76
2022/04/04 10:53:53;;;;;;;11.23;6.80;;;6.30;99.90;;;;;;5074640;28;20167;-76
2022/04/04 10:56:24;;;;;;;9.63;6.80;;;6.20;1.00;;;;;;5073411;28;20197;-76
2022/04/04 10:59:13;;;;;;;8.10;6.87;;;6.20;1.00;;;;;;5072649;28;20186;-76
2022/04/04 11:01:39;;;;;;;9.27;7.07;;;6.20;99.90;;;;;;5073835;28;20248;-76
2022/04/04 11:04:05;;;;;;;10.83;7.77;;;6.20;1.00;;;;;;5073794;28;20175;-76
2022/04/04 11:12:08;;;;;;;12.87;8.47;;;6.00;90.70;;;;;;5081225;23;20585;-77
2022/04/04 11:14:41;;;;;;;8.80;6.73;;;6.00;99.90;;;;;;5066738;28;20207;-78
2022/04/04 11:17:17;;;;;;;11.70;7.43;;;6.00;1.00;;;;;;5053824;28;20632;-77
2022/04/04 11:19:48;;;;;;;12.63;8.50;;;5.90;99.90;;;;;;5053636;28;20202;-76
2022/04/04 11:22:18;;;;;;;10.10;7.10;;;5.80;99.90;;;;;;5052101;28;20202;-73
2022/04/04 11:24:49;;;;;;;10.43;7.77;;;5.80;99.90;;;;;;5053290;28;20160;-73
2022/04/04 11:27:15;;;;;;;9.97;7.27;;;5.80;99.90;;;;;;5051889;28;20171;-73
2022/04/04 11:29:42;;;;;;;9.83;8.37;;;5.80;99.90;;;;;;5053188;28;20655;-73
2022/04/04 11:32:15;;;;;;;10.63;8.53;;;5.60;99.90;;;;;;5053008;28;20168;-74
2022/04/04 11:34:42;;;;;;;10.43;8.10;;;5.70;99.90;;;;;;5051566;28;20618;-73
2022/04/04 11:37:17;;;;;;;9.83;8.77;;;5.60;99.90;;;;;;5051575;28;20184;-74
2022/04/04 11:39:44;;;;;;;16.13;9.23;;;5.60;99.90;;;;;;5051501;28;20592;-74
2022/04/04 11:42:09;;;;;;;11.50;8.67;;;5.60;99.90;;;;;;5051431;28;20187;-75
2022/04/04 11:44:45;;;;;;;9.90;8.40;;;5.60;99.90;;;;;;5052702;28;20183;-74
2022/04/04 11:47:11;;;;;;;9.73;8.40;;;5.50;99.90;;;;;;5053056;28;20167;-74
2022/04/04 11:49:39;;;;;;;11.03;8.07;;;5.50;99.90;;;;;;5052722;28;20253;-74
2022/04/04 11:52:06;;;;;;;12.43;8.90;;;5.60;99.90;;;;;;5051496;28;20200;-73
2022/04/04 11:54:42;;;;;;;12.27;7.93;;;5.50;99.90;;;;;;5052506;28;20569;-75
2022/04/04 11:57:09;;;;;;;11.87;9.03;;;5.50;99.90;;;;;;5052866;28;20155;-73
2022/04/04 11:59:36;;;;;;;9.57;7.90;;;5.50;99.90;;;;;;5052583;28;20168;-73
2022/04/04 12:02:07;;;;;;;10.27;8.23;;;5.50;99.90;;;;;;5051297;28;20295;-73
2022/04/04 12:04:34;;;;;;;8.80;7.90;;;5.50;99.90;;;;;;5052764;28;20191;-73
2022/04/04 12:07:01;;;;;;;11.90;8.30;;;5.40;99.90;;;;;;5052537;28;20184;-74
2022/04/04 12:09:32;;;;;;;8.03;6.73;;;5.40;99.90;;;;;;5052993;28;20171;-73
2022/04/04 12:12:12;;;;;;;9.33;7.77;;;5.30;99.90;;;;;;5051311;28;20249;-74
2022/04/04 12:14:40;;;;;;;11.07;7.47;;;5.30;99.90;;;;;;5049223;28;20203;-74
2022/04/04 12:17:08;;;;;;;13.93;8.03;;;5.30;99.90;;;;;;5034474;28;20188;-75
2022/04/04 12:19:52;;;;;;;9.50;8.13;;;5.40;99.90;;;;;;5031148;28;20176;-74
2022/04/04 12:25:10;;;;;;;10.77;8.50;;;5.40;99.90;;;;;;5032691;28;20650;-74
2022/04/04 12:28:00;;;;;;;9.23;7.80;;;5.30;99.90;;;;;;5031199;28;20271;-74
2022/04/04 12:30:44;;;;;;;9.90;7.87;;;5.40;99.90;;;;;;5032511;28;20207;-74
2022/04/04 12:33:12;;;;;;;9.77;8.13;;;5.40;99.90;;;;;;5047402;28;20187;-76
2022/04/04 12:35:43;;;;;;;8.63;7.63;;;5.40;99.90;;;;;;5050951;28;20299;-75
2022/04/04 12:38:10;;;;;;;9.03;7.50;;;5.30;99.90;;;;;;5052400;28;20337;-73
2022/04/04 12:40:37;;;;;;;9.27;8.00;;;5.40;99.90;;;;;;5051956;28;20187;-73
2022/04/04 12:43:09;;;;;;;11.60;8.47;;;5.40;99.90;;;;;;5052143;28;20491;-73
2022/04/04 12:45:46;;;;;;;11.70;8.23;;;5.30;99.90;;;;;;5050872;28;20190;-75
2022/04/04 12:48:12;;;;;;;10.23;7.87;;;5.40;99.90;;;;;;5051956;28;20191;-75
2022/04/04 12:50:41;;;;;;;11.17;7.57;;;5.40;99.90;;;;;;5052383;28;20586;-74
2022/04/04 12:53:08;;;;;;;10.37;8.30;;;5.40;99.90;;;;;;5050894;28;20187;-75
2022/04/04 12:55:36;;;;;;;12.23;7.90;;;5.40;99.90;;;;;;5050979;28;20200;-75
2022/04/04 12:58:23;;;;;;;8.37;7.10;;;5.40;99.90;;;;;;5049672;28;20570;-75
2022/04/04 13:00:50;;;;;;;9.67;8.10;;;5.40;99.90;;;;;;5051555;28;20199;-74
2022/04/04 13:03:23;;;;;;;9.77;8.53;;;5.40;99.90;;;;;;5046913;28;20271;-74
2022/04/04 13:05:52;;;;;;;38.30;10.87;;;5.30;99.90;;;;;;5032409;28;20188;-75
2022/04/04 13:08:20;;;;;;;10.93;7.93;;;5.40;99.90;;;;;;5030559;28;20215;-76
2022/04/04 13:11:10;;;;;;;8.07;7.20;;;5.30;99.90;;;;;;5036989;28;20585;-75